Time;durP1;ratioP1;P1;durP2;ratioP2;P2;SDS_P1;SDS_P2;PMS_P1;PMS_P2;Temp;Humidity;BMP_temperature;BMP_pressure;BME280_temperature;BME280_humidity;BME280_pressure;Samples;Min_cycle;Max_cycle;Signal;HPM_P1;HPM_P2
2023/05/31 00:02:32;;;;;;;5.20;3.10;;;;;;;9.30;66.54;101282.77;104185;275;38352;-70
2023/05/31 00:05:13;;;;;;;5.50;2.80;;;;;;;9.24;66.66;101285.48;104194;275;39498;-72
2023/05/31 00:07:55;;;;;;;4.10;2.80;;;;;;;9.17;66.81;101283.34;104158;275;39459;-71
2023/05/31 00:10:27;;;;;;;;;;;;;;;9.14;66.93;101281.48;104073;275;175304;-71
2023/05/31 00:13:01;;;;;;;4.70;3.40;;;;;;;9.07;67.13;101282.30;104132;275;38517;-70
2023/05/31 00:15:34;;;;;;;6.90;3.60;;;;;;;9.04;67.21;101288.96;104157;275;38284;-72
2023/05/31 00:18:08;;;;;;;6.80;3.70;;;;;;;9.03;67.45;101288.47;104167;275;40081;-71
2023/05/31 00:20:42;;;;;;;8.40;3.50;;;;;;;8.99;67.42;101288.70;104160;275;39863;-72
2023/05/31 00:23:16;;;;;;;7.70;3.30;;;;;;;8.94;67.47;101288.95;103520;275;907965;-72
2023/05/31 00:25:50;;;;;;;7.90;3.30;;;;;;;8.93;67.68;101286.88;104033;275;39986;-69
2023/05/31 00:28:27;;;;;;;7.20;4.50;;;;;;;8.91;67.81;101286.59;104207;275;38641;-71
2023/05/31 00:31:01;;;;;;;4.90;3.60;;;;;;;8.88;68.02;101285.41;104219;275;38750;-72
2023/05/31 00:33:42;;;;;;;3.90;3.10;;;;;;;8.82;68.14;101285.15;104215;275;38474;-72
2023/05/31 00:36:18;;;;;;;4.90;3.40;;;;;;;8.77;68.24;101287.84;104300;275;38262;-71
2023/05/31 00:38:52;;;;;;;7.60;3.80;;;;;;;8.72;68.26;101291.23;104271;275;38457;-69
2023/05/31 00:41:33;;;;;;;5.30;3.10;;;;;;;8.68;68.38;101293.89;104258;275;38320;-71
2023/05/31 00:44:11;;;;;;;7.00;3.90;;;;;;;8.65;68.32;101290.98;104206;275;38308;-70
2023/05/31 00:46:47;;;;;;;5.50;3.60;;;;;;;8.62;68.47;101292.08;104235;275;38486;-72
2023/05/31 00:49:21;;;;;;;8.30;3.70;;;;;;;8.61;68.56;101295.39;104198;275;38398;-70
2023/05/31 00:51:56;;;;;;;6.40;3.50;;;;;;;8.61;68.65;101295.41;104134;275;38376;-69
2023/05/31 00:54:31;;;;;;;5.00;3.20;;;;;;;8.57;68.71;101293.02;104145;275;38330;-68
2023/05/31 00:57:09;;;;;;;10.20;3.50;;;;;;;8.49;68.71;101300.27;104181;275;38379;-74
2023/05/31 00:59:50;;;;;;;8.80;3.10;;;;;;;8.42;68.88;101300.36;104147;275;38278;-71
2023/05/31 01:02:25;;;;;;;5.70;3.20;;;;;;;8.39;69.03;101301.29;104183;275;39391;-69
2023/05/31 01:05:03;;;;;;;7.20;3.50;;;;;;;8.40;69.06;101296.23;104116;275;38323;-72
2023/05/31 01:07:39;;;;;;;4.40;3.20;;;;;;;8.38;69.12;101298.34;104148;275;38654;-70
2023/05/31 01:10:16;;;;;;;6.00;3.10;;;;;;;8.32;69.24;101302.39;104231;275;39991;-71
2023/05/31 01:12:57;;;;;;;6.10;2.90;;;;;;;8.21;69.43;101302.54;104209;275;39716;-71
2023/05/31 01:15:34;;;;;;;7.30;3.10;;;;;;;8.12;69.53;101304.57;104158;275;38481;-70
2023/05/31 01:18:13;;;;;;;7.00;3.10;;;;;;;8.05;69.85;101309.00;104236;275;38236;-71
2023/05/31 01:20:49;;;;;;;6.80;2.90;;;;;;;8.02;69.96;101309.73;104258;275;38455;-72
2023/05/31 01:23:48;;;;;;;8.10;3.10;;;;;;;7.98;70.10;101317.77;104220;275;39542;-72
2023/05/31 01:26:39;;;;;;;4.60;3.40;;;;;;;7.92;70.20;101321.68;103990;275;188667;-70
2023/05/31 01:29:15;;;;;;;5.50;3.00;;;;;;;7.89;70.34;101320.49;104211;275;38504;-72
2023/05/31 01:31:51;;;;;;;5.20;2.90;;;;;;;7.86;70.31;101322.44;104189;275;38452;-70
2023/05/31 01:34:25;;;;;;;5.50;2.70;;;;;;;7.85;70.39;101325.05;104214;275;39391;-70
2023/05/31 01:37:01;;;;;;;7.70;2.90;;;;;;;7.84;70.32;101328.54;104056;275;39462;-71
2023/05/31 01:39:34;;;;;;;5.20;2.80;;;;;;;7.86;70.61;101331.65;104176;275;38386;-70
2023/05/31 01:42:11;;;;;;;7.10;2.70;;;;;;;7.86;70.85;101339.46;104149;275;39439;-70
2023/05/31 01:44:45;;;;;;;5.50;2.80;;;;;;;7.83;70.85;101338.29;104113;275;38817;-72
2023/05/31 01:47:19;;;;;;;6.90;2.80;;;;;;;7.78;70.84;101345.63;104178;275;38226;-72
2023/05/31 01:49:54;;;;;;;5.70;2.40;;;;;;;7.73;70.72;101342.56;104144;275;38656;-72
2023/05/31 01:52:31;;;;;;;6.60;2.50;;;;;;;7.68;70.93;101337.05;104187;275;38533;-72
2023/05/31 01:55:11;;;;;;;7.40;3.00;;;;;;;7.61;71.00;101340.08;104123;275;39640;-72
2023/05/31 01:57:46;;;;;;;4.30;2.80;;;;;;;7.56;71.13;101335.97;104200;275;39655;-71
2023/05/31 02:00:23;;;;;;;8.10;3.20;;;;;;;7.53;71.18;101338.60;104197;275;38434;-72
2023/05/31 02:02:59;;;;;;;7.10;2.90;;;;;;;7.47;71.33;101335.88;104163;275;40105;-72
2023/05/31 02:05:34;;;;;;;4.90;2.70;;;;;;;7.43;71.49;101339.22;104182;275;38213;-72
2023/05/31 02:08:10;;;;;;;6.60;2.30;;;;;;;7.39;71.67;101338.39;104175;275;38243;-73
2023/05/31 02:10:44;;;;;;;5.60;2.80;;;;;;;7.35;71.72;101338.77;104207;275;39946;-70
2023/05/31 02:13:20;;;;;;;6.40;3.00;;;;;;;7.31;71.80;101337.77;104205;275;39004;-71
2023/05/31 02:15:55;;;;;;;6.00;2.70;;;;;;;7.28;71.82;101336.06;104214;275;38288;-72
2023/05/31 02:18:30;;;;;;;7.10;3.00;;;;;;;7.23;71.98;101339.92;104044;275;175413;-73
2023/05/31 02:21:05;;;;;;;5.00;3.00;;;;;;;7.20;72.18;101342.55;104199;275;39412;-71
2023/05/31 02:23:40;;;;;;;7.10;2.80;;;;;;;7.16;72.23;101346.57;104141;275;38476;-70
2023/05/31 02:26:14;;;;;;;7.00;3.40;;;;;;;7.14;72.37;101342.60;104169;275;38397;-71
2023/05/31 02:28:49;;;;;;;8.50;3.20;;;;;;;7.12;72.52;101342.45;104171;275;38278;-71
2023/05/31 02:31:23;;;;;;;7.00;2.90;;;;;;;7.10;72.45;101342.63;104134;275;38490;-71
2023/05/31 02:33:58;;;;;;;5.50;3.10;;;;;;;7.08;72.56;101348.38;104144;275;38240;-71
2023/05/31 02:36:32;;;;;;;7.60;2.90;;;;;;;7.07;72.60;101352.02;104027;277;38260;-72
2023/05/31 02:39:10;;;;;;;5.10;2.80;;;;;;;7.04;72.75;101353.61;104170;275;39803;-72
2023/05/31 02:41:45;;;;;;;6.60;3.10;;;;;;;7.03;72.92;101351.55;104180;275;38231;-71
2023/05/31 02:44:26;;;;;;;5.30;3.20;;;;;;;7.05;73.07;101350.84;104143;276;38256;-71
2023/05/31 02:47:02;;;;;;;;;;;;;;;7.10;73.03;101350.44;104042;276;38243;-72
2023/05/31 02:49:37;;;;;;;6.00;2.90;;;;;;;7.08;73.30;101353.92;104140;275;38441;-71
2023/05/31 02:52:15;;;;;;;8.20;2.90;;;;;;;7.10;73.23;101352.52;104179;275;38488;-71
2023/05/31 02:54:52;;;;;;;4.50;2.70;;;;;;;7.11;73.42;101354.77;104194;275;39728;-70
2023/05/31 02:57:28;;;;;;;7.80;2.70;;;;;;;7.12;73.29;101361.02;104165;275;39695;-73
2023/05/31 03:00:12;;;;;;;8.60;3.10;;;;;;;7.11;73.36;101354.77;104149;276;39406;-71
2023/05/31 03:02:52;;;;;;;5.30;2.80;;;;;;;7.09;73.49;101359.47;104040;275;175490;-73
2023/05/31 03:05:29;;;;;;;6.00;2.50;;;;;;;7.09;73.70;101359.13;104197;275;38360;-71
2023/05/31 03:08:05;;;;;;;3.70;2.30;;;;;;;7.11;73.89;101359.81;104135;275;38244;-71
2023/05/31 03:10:45;;;;;;;4.00;2.80;;;;;;;7.15;73.96;101361.17;104186;275;39383;-70
2023/05/31 03:13:23;;;;;;;5.40;2.70;;;;;;;7.18;74.07;101359.90;103978;275;38347;-70
2023/05/31 03:16:07;;;;;;;7.30;3.20;;;;;;;7.22;74.22;101358.84;104138;275;38223;-71
2023/05/31 03:18:44;;;;;;;4.90;2.60;;;;;;;7.26;74.40;101362.45;104127;275;38408;-72
2023/05/31 03:21:22;;;;;;;4.40;2.50;;;;;;;7.28;74.45;101362.77;104159;275;39958;-71
2023/05/31 03:24:01;;;;;;;6.10;2.30;;;;;;;7.34;74.60;101364.99;104120;275;39419;-72
2023/05/31 03:26:38;;;;;;;5.80;2.50;;;;;;;7.42;74.65;101366.99;104006;275;39001;-69
2023/05/31 03:29:13;;;;;;;4.70;2.80;;;;;;;7.53;74.75;101366.38;104129;275;39583;-70
2023/05/31 03:31:48;;;;;;;4.20;2.20;;;;;;;7.63;74.77;101363.85;104178;275;38246;-70
2023/05/31 03:34:22;;;;;;;5.40;2.60;;;;;;;7.78;74.78;101363.88;104166;275;39291;-72
2023/05/31 03:36:58;;;;;;;6.10;2.40;;;;;;;8.08;74.53;101362.31;104221;275;38412;-72
2023/05/31 03:39:36;;;;;;;3.30;1.90;;;;;;;8.69;74.41;101365.38;104173;275;38798;-71
2023/05/31 03:42:14;;;;;;;6.00;2.70;;;;;;;9.81;74.57;101359.50;104192;275;40062;-71
2023/05/31 03:44:51;;;;;;;6.50;2.40;;;;;;;11.05;74.16;101361.73;104185;275;38575;-72
2023/05/31 03:47:28;;;;;;;5.60;2.10;;;;;;;12.26;73.03;101358.70;104195;275;38356;-71
2023/05/31 03:50:10;;;;;;;4.80;2.50;;;;;;;13.55;70.52;101354.08;104164;275;38229;-72
2023/05/31 03:52:47;;;;;;;7.30;2.30;;;;;;;14.71;66.24;101351.25;103616;275;660480;-71
2023/05/31 03:55:24;;;;;;;6.30;2.30;;;;;;;15.69;61.78;101349.61;104077;275;39991;-72
2023/05/31 03:57:59;;;;;;;5.00;2.60;;;;;;;16.60;57.94;101354.14;104129;275;38444;-72
2023/05/31 04:00:34;;;;;;;6.60;2.50;;;;;;;17.56;55.20;101353.45;104135;275;39685;-71
2023/05/31 04:03:11;;;;;;;3.60;2.20;;;;;;;18.33;52.59;101349.59;104161;275;39426;-72
2023/05/31 04:05:48;;;;;;;6.40;2.20;;;;;;;19.02;50.11;101342.32;104012;277;38244;-73
2023/05/31 04:08:22;;;;;;;7.60;2.60;;;;;;;19.75;46.36;101344.41;104110;275;38253;-70
2023/05/31 04:11:00;;;;;;;8.50;2.20;;;;;;;20.34;45.13;101347.30;103924;275;174709;-72
2023/05/31 04:13:37;;;;;;;4.60;1.70;;;;;;;20.67;43.16;101350.93;104151;275;38382;-71
2023/05/31 04:16:19;;;;;;;4.60;1.90;;;;;;;21.03;40.61;101346.02;104157;276;38308;-71
2023/05/31 04:18:57;;;;;;;4.10;2.10;;;;;;;20.93;39.73;101353.79;104132;275;38719;-73
2023/05/31 04:21:36;;;;;;;2.90;1.70;;;;;;;20.42;39.43;101350.73;104205;275;39559;-72
2023/05/31 04:24:13;;;;;;;6.60;2.30;;;;;;;19.62;39.76;101342.00;104178;275;38265;-73
2023/05/31 04:26:51;;;;;;;3.30;1.90;;;;;;;18.78;40.62;101344.43;104215;275;39772;-73
2023/05/31 04:29:29;;;;;;;4.30;2.40;;;;;;;18.03;41.41;101349.11;104113;275;38387;-71
2023/05/31 04:32:07;;;;;;;4.00;1.80;;;;;;;17.42;42.36;101350.66;104146;276;39871;-72
2023/05/31 04:34:47;;;;;;;5.00;1.80;;;;;;;16.86;43.22;101353.59;104042;275;38370;-72
2023/05/31 04:37:24;;;;;;;4.50;1.80;;;;;;;16.33;44.22;101355.05;104174;275;38463;-72
2023/05/31 04:40:11;;;;;;;4.80;1.90;;;;;;;15.88;45.01;101352.84;104144;275;38533;-71
2023/05/31 04:42:50;;;;;;;4.40;2.20;;;;;;;15.67;45.77;101347.29;103838;275;40650;-72
2023/05/31 04:45:30;;;;;;;9.50;2.30;;;;;;;15.49;46.35;101346.82;104082;275;188159;-73
2023/05/31 04:48:10;;;;;;;5.50;2.00;;;;;;;15.29;46.63;101347.48;104163;276;38217;-70
2023/05/31 04:50:46;;;;;;;5.60;1.80;;;;;;;15.21;47.17;101348.71;104156;275;38465;-72
2023/05/31 04:53:21;;;;;;;2.90;1.70;;;;;;;15.11;47.32;101352.63;104108;275;38342;-71
2023/05/31 04:55:55;;;;;;;4.20;1.90;;;;;;;14.95;47.74;101347.67;104074;276;174878;-73
2023/05/31 04:58:33;;;;;;;5.40;1.90;;;;;;;15.18;48.65;101343.02;104179;275;38520;-73
2023/05/31 05:01:14;;;;;;;2.80;1.70;;;;;;;16.09;48.53;101341.88;104212;275;38261;-74
2023/05/31 05:03:52;;;;;;;3.20;1.60;;;;;;;17.38;47.34;101340.77;104203;275;38264;-73
2023/05/31 05:06:37;;;;;;;5.60;1.80;;;;;;;18.60;44.85;101337.45;104197;275;39504;-72
2023/05/31 05:09:12;;;;;;;3.40;1.30;;;;;;;19.82;41.97;101333.73;103525;275;895540;-71
2023/05/31 05:11:47;;;;;;;2.70;1.50;;;;;;;20.89;40.01;101332.65;104193;275;39659;-72
2023/05/31 05:14:29;;;;;;;4.80;1.60;;;;;;;21.74;37.85;101332.53;104142;276;38702;-74
2023/05/31 05:17:06;;;;;;;3.50;1.40;;;;;;;22.46;36.68;101330.15;104101;276;38395;-72
2023/05/31 05:19:42;;;;;;;3.40;1.40;;;;;;;23.02;34.72;101329.17;104135;275;39643;-71
2023/05/31 05:22:17;;;;;;;5.00;1.50;;;;;;;23.61;33.86;101329.30;104105;276;38379;-73
2023/05/31 05:24:51;;;;;;;4.10;1.40;;;;;;;24.31;32.77;101330.95;104110;275;39468;-72
2023/05/31 05:27:27;;;;;;;1.90;1.30;;;;;;;24.66;31.69;101333.34;104144;275;38402;-71
2023/05/31 05:30:06;;;;;;;4.50;1.70;;;;;;;24.92;31.14;101329.67;103495;275;888791;-71
2023/05/31 05:32:41;;;;;;;3.40;1.50;;;;;;;25.33;30.26;101326.69;104114;275;38500;-72
2023/05/31 05:35:16;;;;;;;4.30;1.30;;;;;;;25.60;29.92;101326.50;104161;275;39408;-70
2023/05/31 05:37:54;;;;;;;3.20;1.50;;;;;;;26.02;29.50;101325.15;104134;275;38690;-72
2023/05/31 05:40:33;;;;;;;2.80;1.30;;;;;;;26.50;28.13;101325.21;104141;275;38529;-72
2023/05/31 05:43:10;;;;;;;3.70;1.60;;;;;;;26.69;27.38;101321.70;104166;275;39431;-72
2023/05/31 05:45:49;;;;;;;6.40;1.50;;;;;;;26.72;26.72;101322.29;104256;275;38346;-72
2023/05/31 05:48:23;;;;;;;3.10;1.50;;;;;;;26.86;26.68;101326.05;104199;275;39449;-72
2023/05/31 05:51:03;;;;;;;3.30;1.60;;;;;;;27.11;26.61;101326.98;104187;275;38403;-71
2023/05/31 05:53:40;;;;;;;5.00;1.60;;;;;;;27.41;26.30;101322.33;104189;275;38236;-71
2023/05/31 05:56:17;;;;;;;4.00;1.60;;;;;;;27.79;25.29;101321.64;104174;275;38523;-72
2023/05/31 05:58:55;;;;;;;3.40;1.30;;;;;;;27.89;24.43;101319.55;104140;275;40004;-72
2023/05/31 06:01:31;;;;;;;2.90;1.40;;;;;;;28.11;24.38;101325.33;104091;275;39660;-73
2023/05/31 06:04:06;;;;;;;3.40;1.50;;;;;;;28.35;24.04;101328.43;103906;275;173066;-72
2023/05/31 06:06:43;;;;;;;4.70;1.60;;;;;;;28.53;24.27;101333.84;104144;275;38259;-72
2023/05/31 06:09:19;;;;;;;4.20;1.50;;;;;;;28.67;23.84;101331.33;104152;275;39648;-72
2023/05/31 06:11:56;;;;;;;2.10;1.30;;;;;;;28.90;23.29;101324.56;103932;277;174108;-71
2023/05/31 06:14:30;;;;;;;3.90;1.20;;;;;;;29.38;23.73;101316.84;103968;277;38358;-71
2023/05/31 06:17:08;;;;;;;2.40;1.10;;;;;;;29.68;22.82;101316.42;104139;275;40005;-71
2023/05/31 06:19:46;;;;;;;2.70;1.20;;;;;;;30.00;21.75;101316.38;104165;275;38374;-72
2023/05/31 06:22:24;;;;;;;2.40;1.00;;;;;;;30.23;20.23;101316.13;104180;275;38634;-71
2023/05/31 06:25:03;;;;;;;4.50;1.10;;;;;;;30.29;19.61;101313.45;104173;275;38281;-71
2023/05/31 06:27:41;;;;;;;4.30;1.20;;;;;;;30.41;19.47;101312.16;104235;275;38236;-71
2023/05/31 06:30:21;;;;;;;2.00;1.30;;;;;;;30.52;19.76;101304.80;104199;275;39634;-73
2023/05/31 06:32:57;;;;;;;1.70;1.00;;;;;;;30.34;19.44;101309.82;104077;275;173958;-71
2023/05/31 06:35:33;;;;;;;4.10;1.30;;;;;;;30.37;19.82;101312.45;103563;275;884344;-71
2023/05/31 06:38:07;;;;;;;7.90;1.50;;;;;;;30.77;20.07;101305.59;104130;275;38275;-71
2023/05/31 06:40:44;;;;;;;1.70;1.10;;;;;;;31.09;18.30;101304.41;104180;275;38549;-71
2023/05/31 06:43:18;;;;;;;3.00;1.10;;;;;;;31.26;17.90;101309.05;104139;275;38236;-72
2023/05/31 06:45:54;;;;;;;2.00;1.30;;;;;;;31.39;17.35;101304.38;104157;275;39472;-73
2023/05/31 06:48:32;;;;;;;3.50;1.00;;;;;;;31.33;17.12;101303.91;104026;275;171249;-73
2023/05/31 06:51:06;;;;;;;3.50;1.00;;;;;;;31.37;17.97;101299.73;104144;275;38295;-73
2023/05/31 06:53:42;;;;;;;2.30;1.10;;;;;;;31.70;16.91;101306.61;104014;275;38233;-73
2023/05/31 06:56:18;;;;;;;1.20;0.90;;;;;;;31.62;16.06;101304.29;104155;275;38229;-73
2023/05/31 06:58:55;;;;;;;3.20;1.10;;;;;;;31.61;16.34;101301.31;103992;275;39380;-74
2023/05/31 07:01:31;;;;;;;3.20;1.10;;;;;;;31.66;16.25;101298.27;104142;275;38296;-73
2023/05/31 07:04:05;;;;;;;1.70;1.10;;;;;;;31.62;16.09;101298.17;104174;275;38848;-72
2023/05/31 07:06:44;;;;;;;2.70;0.90;;;;;;;31.80;16.16;101296.27;104123;277;38386;-73
2023/05/31 07:09:20;;;;;;;2.80;1.10;;;;;;;32.09;16.13;101294.54;104177;275;38788;-72
2023/05/31 07:11:57;;;;;;;1.40;1.00;;;;;;;32.14;15.21;101289.57;104222;275;39403;-74
2023/05/31 07:14:33;;;;;;;2.80;1.00;;;;;;;31.88;16.11;101286.44;104173;275;38274;-72
2023/05/31 07:17:10;;;;;;;1.80;0.80;;;;;;;32.15;16.84;101284.35;104178;275;38264;-71
2023/05/31 07:19:53;;;;;;;3.10;1.00;;;;;;;32.36;16.77;101287.84;104158;275;39170;-72
2023/05/31 07:22:27;;;;;;;1.40;0.80;;;;;;;32.73;16.45;101282.23;104058;275;173917;-73
2023/05/31 07:25:06;;;;;;;1.30;0.90;;;;;;;33.18;16.09;101281.42;104191;275;38747;-73
2023/05/31 07:27:41;;;;;;;2.50;0.90;;;;;;;33.53;15.16;101277.30;104124;275;39803;-73
2023/05/31 07:30:17;;;;;;;1.20;0.90;;;;;;;33.48;14.45;101283.69;104137;275;38555;-72
2023/05/31 07:32:55;;;;;;;3.00;1.40;;;;;;;33.12;13.98;101280.56;104116;275;39407;-74
2023/05/31 07:35:30;;;;;;;1.90;0.80;;;;;;;32.88;14.02;101278.92;104188;275;38635;-73
2023/05/31 07:38:08;;;;;;;3.00;0.80;;;;;;;32.87;14.38;101268.27;104183;275;39476;-73
2023/05/31 07:40:42;;;;;;;1.50;1.00;;;;;;;33.03;15.23;101264.83;104260;275;38473;-77
2023/05/31 07:43:21;;;;;;;2.90;1.20;;;;;;;33.23;14.95;101254.87;104167;275;38246;-75
2023/05/31 07:45:57;;;;;;;1.50;0.90;;;;;;;33.56;14.50;101258.06;104229;275;38369;-74
2023/05/31 07:48:35;;;;;;;2.50;0.90;;;;;;;33.60;13.85;101255.42;104150;275;38876;-76
2023/05/31 07:51:11;;;;;;;3.80;1.00;;;;;;;33.37;14.19;101252.72;104013;276;38725;-76
2023/05/31 07:53:48;;;;;;;2.10;1.10;;;;;;;33.59;14.76;101251.04;104142;263;38817;-76
2023/05/31 07:56:25;;;;;;;2.40;1.00;;;;;;;34.01;14.41;101253.54;104189;275;38400;-75
2023/05/31 07:59:01;;;;;;;2.00;0.80;;;;;;;34.29;14.40;101254.85;104202;275;38334;-77
2023/05/31 08:01:38;;;;;;;1.50;0.90;;;;;;;34.28;13.76;101252.83;104198;275;38243;-76
2023/05/31 08:04:16;;;;;;;1.10;0.80;;;;;;;34.17;13.62;101248.51;104187;275;38274;-75
2023/05/31 08:06:54;;;;;;;1.60;0.80;;;;;;;34.36;13.74;101250.98;104044;275;39400;-72
2023/05/31 08:09:30;;;;;;;1.70;0.90;;;;;;;34.70;13.71;101246.84;104159;276;38242;-73
2023/05/31 08:12:04;;;;;;;2.10;0.90;;;;;;;34.76;12.50;101242.39;104089;276;38450;-73
2023/05/31 08:14:39;;;;;;;1.80;1.00;;;;;;;34.58;12.56;101238.33;104040;275;38672;-73
2023/05/31 08:17:13;;;;;;;1.50;0.80;;;;;;;34.52;12.51;101237.23;103966;276;171178;-73
2023/05/31 08:19:47;;;;;;;1.50;1.00;;;;;;;34.62;12.29;101242.31;104147;275;38541;-73
2023/05/31 08:22:21;;;;;;;1.70;0.80;;;;;;;34.51;12.20;101240.77;104172;275;39995;-74
2023/05/31 08:24:56;;;;;;;1.90;0.90;;;;;;;34.33;12.87;101240.41;104214;275;39553;-72
2023/05/31 08:27:35;;;;;;;3.80;0.80;;;;;;;34.66;13.33;101232.23;104145;276;38450;-74
2023/05/31 08:30:14;;;;;;;3.40;1.00;;;;;;;34.97;13.37;101231.92;104146;275;38245;-73
2023/05/31 08:32:48;;;;;;;2.60;0.90;;;;;;;35.28;13.30;101229.75;104122;275;38242;-73
2023/05/31 08:35:25;;;;;;;2.70;1.00;;;;;;;35.61;12.78;101226.78;104188;276;38602;-73
2023/05/31 08:38:00;;;;;;;1.20;0.70;;;;;;;35.86;12.26;101223.53;104139;275;39671;-72
2023/05/31 08:40:37;;;;;;;1.50;0.90;;;;;;;35.97;12.62;101219.92;104137;275;38691;-73
2023/05/31 08:43:15;;;;;;;3.60;1.00;;;;;;;36.15;12.92;101223.45;104111;275;39404;-73
2023/05/31 08:45:49;;;;;;;3.50;0.90;;;;;;;36.04;11.20;101222.06;104175;275;39514;-73
2023/05/31 08:48:32;;;;;;;5.00;1.20;;;;;;;35.77;11.61;101212.56;104176;275;38511;-73
2023/05/31 08:51:11;;;;;;;2.70;1.20;;;;;;;35.64;12.10;101211.79;104145;275;38268;-74
2023/05/31 08:53:47;;;;;;;2.90;0.90;;;;;;;35.30;12.63;101209.27;104016;275;173851;-73
2023/05/31 08:56:23;;;;;;;3.50;1.10;;;;;;;35.11;12.68;101209.41;104166;275;38295;-73
2023/05/31 08:58:58;;;;;;;2.70;1.10;;;;;;;35.01;12.59;101211.27;104153;275;38290;-73
2023/05/31 09:01:33;;;;;;;1.60;0.90;;;;;;;34.99;13.14;101209.71;104037;275;173785;-73
2023/05/31 09:04:13;;;;;;;4.60;0.90;;;;;;;35.06;13.74;101209.63;104154;275;38853;-73
2023/05/31 09:06:50;;;;;;;2.70;0.90;;;;;;;34.99;11.31;101210.83;104008;276;39858;-74
2023/05/31 09:09:28;;;;;;;1.50;0.70;;;;;;;34.48;11.61;101214.02;104132;275;39543;-72
2023/05/31 09:12:06;;;;;;;1.20;0.70;;;;;;;34.32;13.31;101218.41;104178;275;40096;-73
2023/05/31 09:14:42;;;;;;;2.80;1.20;;;;;;;34.34;13.07;101218.30;104190;275;38620;-73
2023/05/31 09:17:20;;;;;;;2.00;0.70;;;;;;;34.17;12.84;101215.36;104167;275;38921;-72
2023/05/31 09:20:03;;;;;;;2.10;0.90;;;;;;;33.84;13.25;101211.20;104159;275;39638;-72
2023/05/31 09:22:38;;;;;;;2.40;1.00;;;;;;;33.62;13.84;101211.05;104145;275;38952;-72
2023/05/31 09:25:13;;;;;;;2.60;0.80;;;;;;;33.21;13.73;101210.70;104199;275;38829;-74
2023/05/31 09:27:55;;;;;;;1.60;0.80;;;;;;;32.81;13.51;101214.81;103949;277;40536;-73
2023/05/31 09:30:35;;;;;;;1.70;0.80;;;;;;;32.35;13.45;101215.39;104176;275;38722;-73
2023/05/31 09:33:10;;;;;;;2.10;0.90;;;;;;;32.06;13.89;101217.45;104122;275;38427;-73
2023/05/31 09:35:59;;;;;;;1.70;0.80;;;;;;;31.76;14.03;101206.73;103987;277;39894;-72
2023/05/31 09:38:38;;;;;;;4.60;1.30;;;;;;;31.43;14.48;101206.81;104149;276;39507;-72
2023/05/31 09:41:30;;;;;;;2.10;0.90;;;;;;;31.05;14.38;101206.48;104059;275;38505;-72
2023/05/31 09:44:10;;;;;;;3.40;0.80;;;;;;;30.61;14.65;101206.77;104155;275;38386;-73
2023/05/31 09:46:51;;;;;;;1.00;0.70;;;;;;;30.17;14.32;101203.13;104203;276;38801;-72
2023/05/31 09:49:34;;;;;;;2.20;0.90;;;;;;;29.98;15.52;101201.73;104069;277;39467;-77
2023/05/31 09:52:15;;;;;;;2.90;0.90;;;;;;;29.75;14.63;101202.38;104374;275;39511;-76
2023/05/31 09:54:50;;;;;;;1.40;0.80;;;;;;;29.44;14.95;101201.66;104156;275;38231;-77
2023/05/31 09:57:40;;;;;;;2.40;0.70;;;;;;;29.34;15.94;101201.81;104136;275;38329;-76
2023/05/31 10:00:18;;;;;;;1.70;0.90;;;;;;;29.34;14.63;101198.27;104018;275;38766;-76
2023/05/31 10:02:54;;;;;;;2.90;0.80;;;;;;;29.22;14.93;101198.44;104152;275;39494;-77
2023/05/31 10:05:32;;;;;;;1.40;0.80;;;;;;;29.16;15.25;101195.79;104007;275;38745;-76
2023/05/31 10:08:09;;;;;;;4.00;1.00;;;;;;;29.05;15.22;101195.89;104104;275;38444;-78
2023/05/31 10:10:49;;;;;;;1.10;0.70;;;;;;;29.02;16.29;101189.77;104264;275;38275;-75
2023/05/31 10:13:29;;;;;;;1.80;0.90;;;;;;;29.03;15.47;101185.83;104211;275;39381;-77
2023/05/31 10:16:17;;;;;;;1.00;0.80;;;;;;;28.83;15.68;101179.64;104206;277;38471;-78
2023/05/31 10:18:56;;;;;;;1.80;0.70;;;;;;;28.61;15.55;101182.39;104265;275;38354;-78
2023/05/31 10:21:33;;;;;;;6.70;1.20;;;;;;;28.51;15.99;101185.74;104224;275;38264;-75
2023/05/31 10:24:17;;;;;;;3.90;1.20;;;;;;;28.16;16.17;101187.44;104186;276;38300;-75
2023/05/31 10:27:04;;;;;;;2.60;1.30;;;;;;;27.76;16.47;101187.64;104080;275;39920;-77
2023/05/31 10:29:43;;;;;;;3.00;1.10;;;;;;;27.57;17.90;101189.30;104206;275;39982;-78
2023/05/31 10:32:26;;;;;;;3.80;1.40;;;;;;;27.68;18.02;101187.70;104093;276;38544;-77
2023/05/31 10:35:09;;;;;;;1.70;0.90;;;;;;;27.76;18.04;101185.85;104200;275;38371;-78
2023/05/31 10:37:45;;;;;;;1.40;0.90;;;;;;;27.81;17.84;101184.65;104264;275;38217;-78
2023/05/31 10:40:33;;;;;;;2.20;0.80;;;;;;;27.79;17.38;101181.11;104160;275;38247;-78
2023/05/31 10:43:13;;;;;;;5.90;2.00;;;;;;;27.78;17.74;101186.77;104242;275;38558;-78
2023/05/31 10:45:56;;;;;;;4.10;1.70;;;;;;;27.77;17.76;101185.76;104300;275;39288;-78
2023/05/31 10:48:42;;;;;;;1.30;1.00;;;;;;;27.80;17.92;101183.38;104230;275;39887;-78
2023/05/31 10:51:18;;;;;;;1.70;1.00;;;;;;;27.77;17.67;101177.84;104252;275;38264;-75
2023/05/31 10:53:54;;;;;;;1.50;1.00;;;;;;;27.74;17.90;101177.04;104194;275;38726;-74
2023/05/31 10:56:44;;;;;;;8.40;1.90;;;;;;;27.59;16.98;101175.23;104094;275;38935;-79
2023/05/31 10:59:27;;;;;;;2.20;0.90;;;;;;;27.12;16.98;101174.29;104293;275;39397;-77
2023/05/31 11:02:07;;;;;;;3.80;1.20;;;;;;;26.82;17.36;101171.70;104205;275;38401;-78
2023/05/31 11:04:42;;;;;;;3.40;1.70;;;;;;;26.59;18.10;101164.20;104089;275;174407;-78
2023/05/31 11:07:28;;;;;;;1.50;0.90;;;;;;;26.52;17.61;101164.88;104176;275;39107;-74
2023/05/31 11:10:13;;;;;;;2.20;1.20;;;;;;;26.32;17.62;101162.63;104035;275;38470;-74
2023/05/31 11:12:48;;;;;;;4.60;1.40;;;;;;;26.18;17.52;101162.39;104304;275;39833;-78
2023/05/31 11:15:23;;;;;;;3.60;1.60;;;;;;;26.03;17.26;101163.24;104290;275;39929;-77
2023/05/31 11:17:59;;;;;;;4.50;1.40;;;;;;;25.90;17.14;101158.36;104109;275;174430;-78
2023/05/31 11:20:36;;;;;;;;;;;;;;;25.87;17.78;101156.34;104219;275;38292;-77
2023/05/31 11:23:34;;;;;;;3.20;1.10;;;;;;;25.91;18.09;101151.84;104138;275;38236;-76
2023/05/31 11:26:29;;;;;;;2.70;1.20;;;;;;;25.96;18.74;101145.09;104202;275;38842;-78
2023/05/31 11:29:05;;;;;;;1.90;1.30;;;;;;;26.10;17.92;101142.94;104248;275;38526;-78
2023/05/31 11:32:07;;;;;;;2.50;1.20;;;;;;;25.96;16.76;101138.28;104245;275;38287;-77
2023/05/31 11:34:54;;;;;;;2.30;1.30;;;;;;;25.70;17.40;101139.94;104199;276;38274;-79
2023/05/31 11:37:34;;;;;;;2.90;1.20;;;;;;;25.66;17.24;101139.42;104274;275;38367;-78
2023/05/31 11:40:18;;;;;;;5.10;1.40;;;;;;;25.69;18.33;101134.84;104240;275;38821;-72
2023/05/31 11:42:57;;;;;;;3.40;1.40;;;;;;;25.82;19.07;101131.90;104175;275;38463;-72
2023/05/31 11:45:34;;;;;;;1.90;1.40;;;;;;;25.91;19.28;101131.08;104179;263;38755;-72
2023/05/31 11:48:30;;;;;;;3.30;1.20;;;;;;;25.79;17.77;101129.65;104144;275;39545;-74
2023/05/31 11:51:06;;;;;;;3.70;1.30;;;;;;;25.50;17.79;101122.08;104052;275;38809;-73
2023/05/31 11:53:45;;;;;;;6.50;1.40;;;;;;;25.24;18.42;101117.71;103355;275;914488;-73
2023/05/31 11:56:19;;;;;;;;;;;;;;;25.07;18.54;101117.05;104133;275;38368;-72
2023/05/31 11:58:56;;;;;;;2.50;1.40;;;;;;;24.93;18.79;101112.89;104181;275;39576;-72
2023/05/31 12:01:39;;;;;;;2.50;1.10;;;;;;;24.98;18.52;101108.60;104178;275;39129;-72
2023/05/31 12:04:17;;;;;;;4.10;1.10;;;;;;;25.03;19.67;101105.51;104144;275;38725;-71
2023/05/31 12:06:55;;;;;;;2.80;1.00;;;;;;;25.12;19.91;101110.09;104024;277;38212;-73
2023/05/31 12:09:30;;;;;;;1.70;1.20;;;;;;;25.09;19.01;101106.76;104032;275;38635;-74
2023/05/31 12:12:11;;;;;;;2.70;1.40;;;;;;;24.88;18.72;101098.77;104190;276;38388;-74
2023/05/31 12:14:55;;;;;;;2.60;1.20;;;;;;;24.74;18.59;101094.05;104180;275;38402;-73
2023/05/31 12:17:40;;;;;;;2.40;1.10;;;;;;;24.69;19.14;101094.98;104018;275;38241;-71